Terminal Aerodrome Forecast
Issued by NWS

Home | Current Version | Previous Version | Graphics & Text | Print | Product List | Glossary On
Versions: 1 2 3 4 5 6 7 8 9 10 11 12 13 14 15 16 17 18
000
FTUS43 KABR 101130
TAFPIR
TAF
KPIR 101130Z 1012/1112 30013KT P6SM FEW250
     FM101800 30017G25KT P6SM FEW250
     FM102300 28010KT P6SM SCT250
     FM110700 29016G24KT P6SM FEW250
     FM111100 30024G34KT P6SM SCT150=

USA.gov is the U.S. government's official web portal to all federal, state and local government web resources and services.